Time;durP1;ratioP1;P1;durP2;ratioP2;P2;SDS_P1;SDS_P2;PMS_P1;PMS_P2;Temp;Humidity;BMP_temperature;BMP_pressure;BME280_temperature;BME280_humidity;BME280_pressure;Samples;Min_cycle;Max_cycle;Signal;HPM_P1;HPM_P2
2024/03/02 00:03:21;;;;;;;8.75;7.90;;;;;;;8.74;74.71;98978.09;10395397;28;20143;-68
2024/03/02 00:08:25;;;;;;;9.00;7.28;;;;;;;8.77;74.88;98991.91;10427951;28;20080;-66
2024/03/02 00:13:29;;;;;;;8.25;7.45;;;;;;;8.65;75.42;98966.53;10372917;28;20068;-66
2024/03/02 00:18:35;;;;;;;8.87;7.87;;;;;;;8.66;75.51;98968.19;10392257;28;20067;-66
2024/03/02 00:23:38;;;;;;;8.98;8.07;;;;;;;8.62;75.55;98972.94;10417365;28;20045;-66
2024/03/02 00:28:43;;;;;;;9.07;7.88;;;;;;;8.67;76.08;98980.47;10401538;28;20044;-65
2024/03/02 00:33:46;;;;;;;9.50;8.10;;;;;;;8.57;75.94;98963.72;10430856;28;20575;-67
2024/03/02 00:38:50;;;;;;;9.13;8.13;;;;;;;8.54;76.52;98956.06;10433120;28;20055;-66
2024/03/02 00:44:03;;;;;;;8.48;7.68;;;;;;;8.55;76.78;98950.59;10429332;28;20063;-65
2024/03/02 00:49:11;;;;;;;9.82;8.82;;;;;;;8.45;77.02;98945.34;10429217;28;22482;-66
2024/03/02 00:54:13;;;;;;;8.95;8.05;;;;;;;8.47;77.17;98953.97;10378801;28;20049;-67
2024/03/02 00:59:15;;;;;;;10.30;9.23;;;;;;;8.48;77.40;98952.16;10426678;28;20055;-67
2024/03/02 01:04:16;;;;;;;9.77;8.77;;;;;;;8.40;77.60;98952.84;10416893;28;20056;-66
2024/03/02 01:09:18;;;;;;;10.80;9.27;;;;;;;8.38;77.49;98959.28;10416575;28;20615;-67
2024/03/02 01:14:20;;;;;;;9.63;8.73;;;;;;;8.43;77.84;98963.16;10415246;28;20135;-66
2024/03/02 01:19:21;;;;;;;11.05;9.95;;;;;;;8.44;78.06;98970.19;10413845;28;20490;-66
2024/03/02 01:24:23;;;;;;;10.40;9.30;;;;;;;8.41;78.93;98975.72;10435351;28;20048;-67
2024/03/02 01:29:25;;;;;;;9.90;8.93;;;;;;;8.39;77.97;98971.53;10425239;28;20060;-67
2024/03/02 01:34:27;;;;;;;10.02;9.02;;;;;;;8.40;78.80;98982.00;10429663;28;20131;-66
2024/03/02 01:39:28;;;;;;;11.27;9.05;;;;;;;8.37;78.37;98969.03;10433649;28;20059;-66
2024/03/02 01:44:30;;;;;;;10.63;9.63;;;;;;;8.34;77.93;98971.97;10401625;28;20390;-68
2024/03/02 01:49:33;;;;;;;9.90;8.93;;;;;;;8.34;78.33;98966.66;10425680;28;20052;-68
2024/03/02 01:54:34;;;;;;;11.77;9.25;;;;;;;8.19;77.94;98933.59;10417482;28;20053;-67
2024/03/02 01:59:35;;;;;;;9.45;8.55;;;;;;;8.24;78.26;98939.31;10426748;28;20049;-65
2024/03/02 02:04:37;;;;;;;10.45;9.45;;;;;;;8.24;78.04;98942.81;10404093;28;20135;-66
2024/03/02 02:09:38;;;;;;;10.40;8.80;;;;;;;8.17;78.54;98931.09;10435514;28;20063;-64
2024/03/02 02:14:47;;;;;;;10.90;9.80;;;;;;;8.08;78.39;98908.09;10435545;28;20563;-64
2024/03/02 02:19:48;;;;;;;11.40;10.30;;;;;;;8.17;78.99;98917.00;10428580;28;20398;-65
2024/03/02 02:24:50;;;;;;;11.52;10.43;;;;;;;8.20;79.48;98914.09;10416944;28;20159;-66
2024/03/02 02:29:51;;;;;;;11.73;10.60;;;;;;;8.16;79.96;98916.16;10409122;28;20446;-67
2024/03/02 02:34:53;;;;;;;11.35;10.15;;;;;;;8.15;79.93;98909.19;10436422;28;20181;-66
2024/03/02 02:39:54;;;;;;;13.05;11.82;;;;;;;8.17;79.83;98914.34;10406317;28;20530;-66
2024/03/02 02:44:57;;;;;;;13.25;11.88;;;;;;;8.08;80.30;98916.88;10433945;28;20045;-66
2024/03/02 02:49:59;;;;;;;13.43;11.75;;;;;;;8.09;80.56;98917.69;10423683;28;20134;-65
2024/03/02 02:55:02;;;;;;;12.75;11.45;;;;;;;8.04;80.71;98904.03;10435292;28;20057;-66
2024/03/02 03:00:15;;;;;;;12.38;11.02;;;;;;;8.05;80.95;98911.03;10421545;28;20060;-65
2024/03/02 03:05:19;;;;;;;14.23;11.45;;;;;;;8.02;80.77;98904.19;10434219;28;20044;-66
2024/03/02 03:10:23;;;;;;;14.13;12.27;;;;;;;7.93;80.95;98891.78;10415644;28;20056;-65
2024/03/02 03:15:25;;;;;;;13.70;12.18;;;;;;;7.97;81.22;98893.16;10441812;28;20284;-66
2024/03/02 03:20:26;;;;;;;14.23;12.48;;;;;;;7.95;81.19;98895.09;10438244;28;20052;-66
2024/03/02 03:25:29;;;;;;;13.73;12.13;;;;;;;7.94;81.51;98898.72;10431364;28;20680;-66
2024/03/02 03:30:31;;;;;;;14.43;12.07;;;;;;;7.88;82.39;98896.63;10433745;28;20061;-67
2024/03/02 03:35:33;;;;;;;12.30;11.05;;;;;;;7.93;82.27;98891.78;10438002;28;20051;-66
2024/03/02 03:40:35;;;;;;;13.98;12.02;;;;;;;7.88;82.07;98884.25;10432419;28;20188;-66
2024/03/02 03:45:36;;;;;;;14.73;12.85;;;;;;;7.93;82.31;98886.47;10443372;28;20060;-65
2024/03/02 03:50:38;;;;;;;15.10;13.50;;;;;;;7.88;82.01;98878.09;10427572;28;20107;-67
2024/03/02 03:55:40;;;;;;;14.98;13.48;;;;;;;7.84;82.08;98903.22;10422766;28;20776;-65
2024/03/02 04:00:41;;;;;;;14.20;12.70;;;;;;;7.85;82.29;98910.16;10431440;28;20060;-67
2024/03/02 04:05:43;;;;;;;13.65;12.30;;;;;;;7.85;82.74;98910.16;10421194;28;20502;-66
2024/03/02 04:10:45;;;;;;;13.23;11.90;;;;;;;7.84;82.43;98903.22;10429706;28;20133;-66
2024/03/02 04:15:48;;;;;;;14.15;12.45;;;;;;;7.72;82.46;98895.38;10415292;28;20073;-66
2024/03/02 04:20:49;;;;;;;12.10;10.90;;;;;;;7.77;83.04;98887.84;10399222;28;20136;-66
2024/03/02 04:25:54;;;;;;;15.10;13.55;;;;;;;7.71;83.10;98893.69;10427207;28;20103;-66
2024/03/02 04:30:55;;;;;;;15.90;13.52;;;;;;;7.78;83.13;98894.84;10434438;28;20645;-67
2024/03/02 04:35:57;;;;;;;15.10;12.88;;;;;;;7.72;83.24;98887.44;10423708;28;20044;-66
2024/03/02 04:40:59;;;;;;;15.63;13.63;;;;;;;7.73;83.33;98899.72;10430629;28;20067;-66
2024/03/02 04:46:00;;;;;;;14.55;12.52;;;;;;;7.65;83.35;98899.56;10430859;28;20054;-66
2024/03/02 04:51:03;;;;;;;13.60;12.15;;;;;;;7.71;83.50;98904.31;10411798;28;20375;-66
2024/03/02 05:01:25;;;;;;;14.95;13.45;;;;;;;7.63;84.19;98901.53;10427776;28;20048;-67
2024/03/02 05:06:27;;;;;;;14.20;12.80;;;;;;;7.58;83.75;98904.59;10405770;28;20076;-67
2024/03/02 05:11:38;;;;;;;14.45;12.95;;;;;;;7.56;84.69;98916.28;10428558;28;20693;-66
2024/03/02 05:16:41;;;;;;;14.82;13.35;;;;;;;7.52;84.40;98898.97;10425884;28;20748;-65
2024/03/02 05:21:43;;;;;;;15.70;13.60;;;;;;;7.54;84.67;98907.66;10438507;28;20126;-66
2024/03/02 05:26:45;;;;;;;16.38;14.68;;;;;;;7.49;85.10;98915.16;10426839;28;20634;-66
2024/03/02 05:31:46;;;;;;;14.90;13.18;;;;;;;7.48;84.93;98929.38;10438899;28;20076;-66
2024/03/02 05:36:49;;;;;;;14.98;13.50;;;;;;;7.51;85.24;98937.03;10382949;28;20045;-66
2024/03/02 05:41:50;;;;;;;16.10;13.93;;;;;;;7.43;85.30;98938.56;10419582;28;20055;-66
2024/03/02 05:46:53;;;;;;;17.48;15.60;;;;;;;7.50;85.19;98943.31;10439235;28;20056;-65
2024/03/02 05:51:55;;;;;;;16.42;13.65;;;;;;;7.51;85.02;98939.69;10400215;28;20092;-65
2024/03/02 05:56:57;;;;;;;14.88;12.57;;;;;;;7.39;84.94;98928.38;10433555;28;20048;-66
2024/03/02 06:02:01;;;;;;;15.55;13.95;;;;;;;7.50;85.28;98948.59;10432156;28;20063;-65
2024/03/02 06:07:03;;;;;;;15.63;13.98;;;;;;;7.44;85.41;98955.28;10407675;28;20215;-66
2024/03/02 06:12:05;;;;;;;15.57;13.10;;;;;;;7.51;85.08;98960.88;10412408;28;20132;-65
2024/03/02 06:17:06;;;;;;;15.25;12.63;;;;;;;7.57;85.26;98963.81;10433236;28;20055;-66
2024/03/02 06:22:10;;;;;;;14.38;12.80;;;;;;;7.44;85.35;98948.16;10434776;28;20059;-66
2024/03/02 06:27:12;;;;;;;13.60;12.20;;;;;;;7.60;85.04;98962.72;10428204;28;20684;-66
2024/03/02 06:32:13;;;;;;;15.93;13.27;;;;;;;7.63;84.84;98978.31;10417126;28;20064;-66
2024/03/02 06:37:15;;;;;;;14.73;12.25;;;;;;;7.67;85.03;98977.09;10420031;28;20044;-66
2024/03/02 06:42:17;;;;;;;15.75;13.20;;;;;;;7.68;85.04;98984.03;10425662;28;20062;-66
2024/03/02 06:47:20;;;;;;;13.98;12.55;;;;;;;7.72;84.96;98992.56;10426588;28;20048;-67
2024/03/02 06:52:22;;;;;;;15.32;12.98;;;;;;;7.69;84.82;98975.13;10442826;28;20057;-66
2024/03/02 06:57:25;;;;;;;14.68;13.18;;;;;;;7.76;84.61;98986.88;10429655;28;20721;-66
2024/03/02 07:02:27;;;;;;;14.73;13.07;;;;;;;7.77;84.73;98988.50;10438129;28;20559;-66
2024/03/02 07:07:29;;;;;;;17.35;14.48;;;;;;;7.71;84.25;98989.06;10416373;28;20045;-66
2024/03/02 07:12:31;;;;;;;15.65;13.38;;;;;;;7.75;83.96;98990.47;10377505;28;20056;-68
2024/03/02 07:17:33;;;;;;;13.13;11.73;;;;;;;7.78;84.28;98992.84;10413500;28;20044;-67
2024/03/02 07:22:34;;;;;;;14.98;13.02;;;;;;;7.79;83.87;99005.13;10432112;28;20123;-67
2024/03/02 07:27:36;;;;;;;16.45;13.20;;;;;;;7.71;83.96;99006.78;10410755;28;20101;-66
2024/03/02 07:32:37;;;;;;;15.60;13.80;;;;;;;7.70;84.08;99005.94;10432282;28;20044;-66
2024/03/02 07:37:40;;;;;;;14.48;12.90;;;;;;;7.73;83.90;99012.75;10427188;28;20060;-66
2024/03/02 07:42:45;;;;;;;14.77;13.27;;;;;;;7.68;83.99;99007.06;10421895;28;20136;-67
2024/03/02 07:47:47;;;;;;;14.13;12.63;;;;;;;7.67;83.84;98998.28;10425785;28;20772;-69
2024/03/02 07:52:50;;;;;;;14.73;13.20;;;;;;;7.79;83.41;99015.72;10431451;28;20166;-69
2024/03/02 07:57:51;;;;;;;14.55;12.98;;;;;;;7.94;83.29;99008.22;10439815;28;20051;-67
2024/03/02 08:02:53;;;;;;;15.27;13.68;;;;;;;8.23;82.51;99020.66;10416655;28;20601;-66
2024/03/02 08:07:55;;;;;;;16.10;14.05;;;;;;;8.50;81.20;99021.81;10398401;28;20060;-65
2024/03/02 08:12:56;;;;;;;16.08;14.38;;;;;;;8.74;80.34;99025.84;10413823;28;20126;-67
2024/03/02 08:17:58;;;;;;;14.32;12.85;;;;;;;8.68;80.10;99019.28;10418569;28;20048;-69
2024/03/02 08:23:01;;;;;;;16.38;14.68;;;;;;;8.91;79.99;99019.81;10421502;28;20048;-66
2024/03/02 08:28:03;;;;;;;18.30;15.82;;;;;;;9.29;79.08;99027.78;10402321;28;20501;-66
2024/03/02 08:33:05;;;;;;;12.75;11.23;;;;;;;9.44;77.87;99033.47;10404995;28;20485;-65
2024/03/02 08:38:07;;;;;;;14.55;13.13;;;;;;;9.43;76.34;99037.09;10413963;28;20048;-65
2024/03/02 08:43:08;;;;;;;13.95;12.45;;;;;;;9.37;76.74;99036.72;10429048;28;20057;-66
2024/03/02 08:48:10;;;;;;;14.57;12.35;;;;;;;9.33;76.78;99037.97;10436026;28;20481;-66
2024/03/02 08:53:11;;;;;;;13.35;12.02;;;;;;;9.47;76.36;99051.78;10406660;28;20066;-66
2024/03/02 08:58:13;;;;;;;14.57;13.02;;;;;;;9.41;75.42;99052.34;10432211;28;20655;-67
2024/03/02 09:03:16;;;;;;;13.27;12.00;;;;;;;9.33;75.68;99045.13;10408453;28;20094;-67
2024/03/02 09:08:17;;;;;;;11.93;10.73;;;;;;;9.48;75.40;99051.63;10412347;28;20838;-68
2024/03/02 09:13:20;;;;;;;14.25;12.23;;;;;;;9.64;74.34;99043.03;10416196;28;20590;-67
2024/03/02 09:18:21;;;;;;;12.70;11.40;;;;;;;9.72;75.22;99044.97;10417483;28;20056;-66
2024/03/02 09:23:25;;;;;;;14.23;12.73;;;;;;;9.96;75.06;99046.22;10414805;28;20573;-67
2024/03/02 09:28:26;;;;;;;14.40;12.95;;;;;;;9.96;73.40;99017.81;10397538;28;20124;-67
2024/03/02 09:33:30;;;;;;;12.20;10.90;;;;;;;10.33;71.53;99031.97;10416768;28;20044;-66
2024/03/02 09:38:33;;;;;;;13.18;11.88;;;;;;;10.43;71.17;99024.78;10400621;28;20139;-67
2024/03/02 09:43:35;;;;;;;13.13;11.75;;;;;;;10.69;70.26;99037.31;10436314;28;20350;-66
2024/03/02 09:48:37;;;;;;;13.35;11.25;;;;;;;10.86;69.65;99024.97;10401735;28;20162;-66
2024/03/02 09:53:39;;;;;;;13.85;12.35;;;;;;;11.01;67.56;99022.59;10395234;28;20056;-67
2024/03/02 09:58:43;;;;;;;14.70;12.52;;;;;;;11.40;67.23;99030.13;10428710;28;20088;-67
2024/03/02 10:03:49;;;;;;;;;;;;;;;11.83;65.44;99021.16;10388468;28;20057;-67
2024/03/02 10:08:51;;;;;;;12.30;10.85;;;;;;;11.84;64.32;98995.31;10373490;28;20838;-67
2024/03/02 10:14:04;;;;;;;14.50;11.68;;;;;;;12.42;62.55;99028.31;10417688;28;20053;-67
2024/03/02 10:19:17;;;;;;;12.55;11.25;;;;;;;12.65;60.77;99009.78;10434210;28;20129;-67
2024/03/02 10:24:22;;;;;;;13.05;11.43;;;;;;;12.97;59.46;99013.44;10433578;28;20048;-67
2024/03/02 10:29:26;;;;;;;11.05;9.77;;;;;;;13.18;59.66;99010.22;10418513;28;20124;-68
2024/03/02 10:34:28;;;;;;;;;;;;;;;13.66;58.17;99018.31;10408784;28;20786;-67
2024/03/02 10:39:31;;;;;;;11.10;9.60;;;;;;;14.25;55.91;99011.63;10382636;28;19924;-67
2024/03/02 10:44:33;;;;;;;10.57;9.35;;;;;;;14.93;54.54;99007.25;10407675;28;20132;-67
2024/03/02 10:49:37;;;;;;;10.23;9.23;;;;;;;15.74;50.97;99001.16;10418475;28;20049;-66
2024/03/02 10:54:39;;;;;;;10.35;9.25;;;;;;;16.21;48.91;98990.97;10432303;28;20068;-66
2024/03/02 11:00:14;;;;;;;9.77;7.80;;;;;;;16.95;47.09;98976.34;10435098;28;20056;-67
2024/03/02 11:05:26;;;;;;;9.05;8.25;;;;;;;17.52;45.16;98979.78;10394197;28;20688;-68
2024/03/02 11:10:34;;;;;;;8.57;7.70;;;;;;;17.75;44.78;98967.88;10398909;28;20679;-66
2024/03/02 11:15:37;;;;;;;9.30;8.35;;;;;;;17.57;44.34;98969.25;10413489;28;20060;-66
2024/03/02 11:20:40;;;;;;;8.23;7.47;;;;;;;17.57;44.52;98971.94;10398169;28;20064;-67
2024/03/02 11:25:41;;;;;;;8.70;7.27;;;;;;;18.42;43.26;98954.56;10419868;28;20417;-66
2024/03/02 11:30:46;;;;;;;7.30;6.57;;;;;;;19.47;41.25;98959.22;10419796;28;20600;-67
2024/03/02 11:35:48;;;;;;;6.65;6.03;;;;;;;20.69;37.89;98953.78;10401222;28;20132;-67
2024/03/02 11:40:52;;;;;;;7.13;6.50;;;;;;;21.18;35.77;98948.53;10412149;28;20041;-67
2024/03/02 11:45:59;;;;;;;7.03;6.38;;;;;;;21.82;35.12;98937.41;10402779;28;20053;-67
2024/03/02 11:51:01;;;;;;;5.85;5.30;;;;;;;21.26;35.06;98931.16;10381406;28;20057;-67
2024/03/02 11:56:03;;;;;;;6.47;5.68;;;;;;;22.33;34.15;98932.53;10427547;28;20437;-66
2024/03/02 12:01:04;;;;;;;5.95;5.45;;;;;;;22.81;32.32;98926.06;10418084;28;20845;-66
2024/03/02 12:06:06;;;;;;;6.35;5.75;;;;;;;22.77;31.74;98916.75;10432181;28;20056;-68
2024/03/02 12:11:08;;;;;;;6.65;5.68;;;;;;;22.91;32.00;98910.03;10429611;28;20063;-67
2024/03/02 12:16:09;;;;;;;56.63;48.47;;;;;;;23.28;31.93;98893.50;10433788;28;20421;-67
2024/03/02 12:21:11;;;;;;;6.38;5.50;;;;;;;23.99;30.80;98885.09;10430098;28;20699;-66
2024/03/02 12:26:14;;;;;;;5.25;4.65;;;;;;;24.79;29.21;98881.50;10416746;28;20487;-67
2024/03/02 12:31:16;;;;;;;5.20;4.70;;;;;;;25.30;28.62;98884.09;10411714;28;20849;-68
2024/03/02 12:36:19;;;;;;;5.43;4.55;;;;;;;26.43;26.58;98864.22;10411904;28;20414;-67
2024/03/02 12:41:22;;;;;;;4.32;3.72;;;;;;;27.59;24.62;98858.00;10414179;28;21276;-66
2024/03/02 12:46:24;;;;;;;;;;;;;;;28.81;23.73;98854.78;10430414;28;20052;-66
2024/03/02 12:51:26;;;;;;;5.18;4.40;;;;;;;29.84;23.02;98849.69;10427309;28;19928;-66
2024/03/02 12:56:27;;;;;;;3.80;3.25;;;;;;;31.37;21.70;98840.22;10433792;28;20075;-66
2024/03/02 13:01:31;;;;;;;4.57;4.17;;;;;;;32.15;19.59;98839.97;10434163;28;20123;-66
2024/03/02 13:06:33;;;;;;;4.50;3.13;;;;;;;32.85;18.79;98835.38;10413308;28;20190;-67
2024/03/02 13:11:35;;;;;;;4.00;2.25;;;;;;;33.79;18.19;98822.91;10435086;28;20057;-66
2024/03/02 13:16:41;;;;;;;3.60;3.03;;;;;;;34.59;17.32;98821.50;10388420;28;20064;-68
2024/03/02 13:21:50;;;;;;;8.27;5.33;;;;;;;35.05;16.34;98809.16;10418534;28;20118;-65
2024/03/02 13:26:55;;;;;;;2.60;1.98;;;;;;;35.52;15.98;98814.97;10391989;28;20064;-67
2024/03/02 13:31:59;;;;;;;2.00;1.80;;;;;;;36.41;14.95;98800.72;10419082;28;20052;-64
2024/03/02 13:37:01;;;;;;;2.55;2.30;;;;;;;36.47;15.01;98798.59;10428897;28;20090;-67
2024/03/02 13:42:04;;;;;;;2.33;1.90;;;;;;;35.86;15.58;98801.47;10423826;28;20075;-65
2024/03/02 13:47:05;;;;;;;3.25;2.15;;;;;;;36.87;15.61;98789.13;10428673;28;20086;-66
2024/03/02 13:52:18;;;;;;;2.00;1.80;;;;;;;36.58;15.18;98788.75;10379629;28;20179;-66
2024/03/02 13:57:22;;;;;;;2.20;1.58;;;;;;;31.04;20.38;98773.34;10410440;28;20113;-64
2024/03/02 14:02:29;;;;;;;1.83;1.50;;;;;;;35.05;16.70;98774.03;10428081;28;20048;-66
2024/03/02 14:07:30;;;;;;;2.10;1.60;;;;;;;35.31;16.09;98753.09;10417857;28;20653;-66
2024/03/02 14:12:32;;;;;;;1.73;1.60;;;;;;;31.76;18.92;98750.34;10415478;28;20103;-66
2024/03/02 14:17:34;;;;;;;2.67;1.52;;;;;;;32.18;19.06;98754.03;10436268;28;20048;-64
2024/03/02 14:22:37;;;;;;;1.48;0.98;;;;;;;31.67;19.04;98753.75;10435899;28;20052;-64
2024/03/02 14:27:40;;;;;;;2.08;0.95;;;;;;;30.61;20.44;98742.00;10426982;28;20053;-66
2024/03/02 14:33:01;;;;;;;1.88;1.20;;;;;;;28.80;21.60;98738.97;10408914;28;20205;-66
2024/03/02 14:38:03;;;;;;;2.55;1.52;;;;;;;27.19;23.17;98730.31;10425944;28;20048;-65
2024/03/02 14:43:05;;;;;;;2.58;1.13;;;;;;;25.39;25.49;98730.88;10414787;28;20513;-66
2024/03/02 14:48:07;;;;;;;1.00;0.65;;;;;;;23.50;28.00;98721.75;10433548;28;20045;-66
2024/03/02 14:53:09;;;;;;;;;;;;;;;22.65;29.65;98726.09;10382573;28;20576;-64
2024/03/02 14:58:11;;;;;;;2.53;1.00;;;;;;;21.97;30.27;98725.69;10409759;28;19932;-65
2024/03/02 15:03:14;;;;;;;2.13;1.13;;;;;;;21.79;30.82;98727.44;10350382;28;20123;-65
2024/03/02 15:08:15;;;;;;;1.60;0.52;;;;;;;21.56;31.53;98719.25;10410137;28;20113;-65
2024/03/02 15:13:17;;;;;;;2.08;0.85;;;;;;;21.10;32.73;98703.47;10381577;28;20059;-66
2024/03/02 15:18:18;;;;;;;2.15;0.80;;;;;;;20.64;33.44;98699.47;10422701;28;20052;-68
2024/03/02 15:23:20;;;;;;;1.73;0.90;;;;;;;20.25;33.63;98709.69;10402790;28;20505;-65
2024/03/02 15:28:22;;;;;;;1.73;0.93;;;;;;;20.05;33.94;98705.31;10429043;28;20150;-65
2024/03/02 15:33:30;;;;;;;1.80;1.52;;;;;;;19.85;34.29;98699.31;10394453;28;20131;-65
2024/03/02 15:38:36;;;;;;;1.38;0.93;;;;;;;19.46;34.26;98690.47;10401573;28;20044;-65
2024/03/02 15:43:43;;;;;;;1.50;1.10;;;;;;;19.23;35.13;98687.31;10405472;28;20101;-66
2024/03/02 15:48:44;;;;;;;1.60;0.93;;;;;;;18.99;34.99;98686.22;10398827;28;20160;-65
2024/03/02 15:53:52;;;;;;;1.70;1.02;;;;;;;18.77;35.42;98688.38;10407196;28;20069;-67
2024/03/02 15:58:53;;;;;;;1.45;0.90;;;;;;;18.55;35.70;98682.44;10408746;28;20588;-66
2024/03/02 16:03:57;;;;;;;1.90;1.02;;;;;;;18.35;36.10;98671.75;10403208;28;20531;-66
2024/03/02 16:08:59;;;;;;;1.77;1.15;;;;;;;18.22;36.81;98679.88;10407671;28;20053;-64
2024/03/02 16:14:01;;;;;;;3.90;1.00;;;;;;;18.05;36.94;98680.31;10429532;28;20476;-65
2024/03/02 16:19:03;;;;;;;1.38;1.17;;;;;;;17.85;37.40;98686.53;10432924;28;20056;-67
2024/03/02 16:24:17;;;;;;;1.60;1.00;;;;;;;17.71;37.55;98676.81;10416415;28;20052;-67
2024/03/02 16:29:18;;;;;;;1.38;0.88;;;;;;;17.48;38.49;98671.88;10431639;28;20045;-71
2024/03/02 16:34:20;;;;;;;4.15;2.30;;;;;;;17.36;38.48;98666.28;10415834;28;20049;-67
2024/03/02 16:39:23;;;;;;;4.38;2.03;;;;;;;17.29;39.21;98671.66;10430022;28;20158;-68
2024/03/02 16:44:24;;;;;;;4.13;2.67;;;;;;;17.04;39.93;98667.88;10430578;28;20049;-67
2024/03/02 16:49:26;;;;;;;2.90;2.28;;;;;;;17.03;40.55;98677.81;10443190;28;20049;-64
2024/03/02 16:54:27;;;;;;;3.53;2.90;;;;;;;16.88;40.88;98686.06;10436035;28;20144;-66
2024/03/02 16:59:29;;;;;;;3.70;2.88;;;;;;;16.81;41.34;98681.66;10432241;28;20125;-66
2024/03/02 17:04:30;;;;;;;5.15;3.70;;;;;;;16.64;41.98;98681.19;10437554;28;20070;-67
2024/03/02 17:09:32;;;;;;;4.50;3.13;;;;;;;16.52;42.41;98691.69;10416527;28;20048;-67
2024/03/02 17:14:33;;;;;;;3.17;2.47;;;;;;;16.42;43.11;98692.03;10434663;28;20052;-68
2024/03/02 17:19:36;;;;;;;3.40;2.30;;;;;;;16.21;43.50;98699.19;10403646;28;20198;-69
2024/03/02 17:24:45;;;;;;;3.67;2.78;;;;;;;16.16;44.09;98698.94;10431637;28;20939;-68
2024/03/02 17:29:48;;;;;;;3.13;2.47;;;;;;;16.05;44.37;98697.66;10447793;28;20134;-69
2024/03/02 17:34:49;;;;;;;4.60;2.85;;;;;;;15.92;44.83;98699.41;10440703;28;20052;-66
2024/03/02 17:39:51;;;;;;;4.82;3.08;;;;;;;15.79;45.42;98695.59;10451806;28;20101;-67
2024/03/02 17:44:53;;;;;;;4.00;2.83;;;;;;;15.72;45.61;98700.06;10404699;28;20190;-66
2024/03/02 17:49:54;;;;;;;2.88;2.53;;;;;;;15.54;46.31;98701.38;10412255;28;20076;-69
2024/03/02 17:54:56;;;;;;;4.03;2.65;;;;;;;15.43;46.79;98691.16;10428801;28;20086;-66
2024/03/02 17:59:58;;;;;;;4.65;2.65;;;;;;;15.31;47.12;98690.03;10414341;28;20057;-66
2024/03/02 18:04:59;;;;;;;3.03;2.58;;;;;;;15.22;47.76;98701.91;10437863;28;20079;-66
2024/03/02 18:10:01;;;;;;;3.90;3.03;;;;;;;15.13;48.26;98703.88;10436983;28;20048;-68
2024/03/02 18:15:07;;;;;;;3.40;3.05;;;;;;;15.01;48.75;98691.00;10408919;28;20694;-66
2024/03/02 18:20:11;;;;;;;5.72;2.97;;;;;;;14.97;49.07;98691.56;10387146;28;20609;-67
2024/03/02 18:25:12;;;;;;;4.43;2.87;;;;;;;14.85;49.50;98689.38;10404716;28;20072;-69
2024/03/02 18:30:16;;;;;;;4.43;2.90;;;;;;;14.75;49.77;98677.31;10433249;28;20040;-68
2024/03/02 18:35:18;;;;;;;3.42;2.72;;;;;;;14.73;50.29;98682.84;10420291;28;20631;-67
2024/03/02 18:40:20;;;;;;;3.60;2.90;;;;;;;14.63;50.85;98679.63;10446056;28;20063;-71
2024/03/02 18:45:21;;;;;;;5.00;2.88;;;;;;;14.56;51.36;98676.00;10433267;28;20700;-68
2024/03/02 18:50:24;;;;;;;4.20;3.75;;;;;;;14.43;51.86;98672.16;10406937;28;20055;-66
2024/03/02 18:55:26;;;;;;;3.72;2.75;;;;;;;14.25;52.26;98655.69;10413785;28;20049;-65
2024/03/02 19:00:28;;;;;;;3.63;3.33;;;;;;;14.33;52.49;98676.97;10427373;28;20052;-68
2024/03/02 19:05:29;;;;;;;6.22;3.85;;;;;;;14.27;53.00;98672.38;10437686;28;20075;-68
2024/03/02 19:10:31;;;;;;;5.15;4.30;;;;;;;14.24;53.56;98672.75;10418879;28;20103;-69
2024/03/02 19:15:32;;;;;;;4.60;4.07;;;;;;;14.22;53.63;98685.50;10432731;28;20067;-65
2024/03/02 19:20:34;;;;;;;6.60;4.55;;;;;;;14.09;53.82;98660.19;10399839;28;20275;-68
2024/03/02 19:25:36;;;;;;;4.72;4.10;;;;;;;14.06;54.94;98654.38;10407704;28;20439;-65
2024/03/02 19:30:38;;;;;;;5.15;4.63;;;;;;;14.04;54.90;98654.56;10403559;28;20059;-64
2024/03/02 19:35:42;;;;;;;5.50;4.20;;;;;;;13.93;55.06;98645.19;10395714;28;20057;-63
2024/03/02 19:40:43;;;;;;;6.05;4.88;;;;;;;13.83;55.46;98649.16;10427118;28;20059;-63
2024/03/02 19:45:45;;;;;;;8.13;6.70;;;;;;;13.72;56.09;98648.56;10409771;28;20063;-60
2024/03/02 19:50:47;;;;;;;5.95;5.18;;;;;;;13.71;55.98;98657.59;10426413;28;20056;-64
2024/03/02 19:55:49;;;;;;;5.65;5.07;;;;;;;13.73;55.42;98666.25;10417564;28;20056;-62
2024/03/02 20:00:50;;;;;;;6.20;5.55;;;;;;;13.54;56.44;98650.75;10436103;28;20053;-61
2024/03/02 20:05:52;;;;;;;8.02;6.07;;;;;;;13.64;55.87;98656.66;10431321;28;20191;-65
2024/03/02 20:10:53;;;;;;;7.75;6.78;;;;;;;13.63;56.44;98665.72;10432432;28;20056;-67
2024/03/02 20:15:55;;;;;;;7.07;6.22;;;;;;;13.57;56.36;98677.13;10432961;28;20056;-63
2024/03/02 20:20:56;;;;;;;7.60;6.90;;;;;;;13.56;56.27;98687.00;10397239;28;20048;-63
2024/03/02 20:25:58;;;;;;;9.15;8.25;;;;;;;13.46;56.05;98674.91;10423757;28;20058;-64
2024/03/02 20:31:01;;;;;;;8.63;7.18;;;;;;;13.51;56.56;98693.88;10434236;28;20049;-64
2024/03/02 20:36:02;;;;;;;6.85;6.05;;;;;;;13.50;56.34;98687.72;10429446;28;20161;-63
2024/03/02 20:41:04;;;;;;;9.38;6.78;;;;;;;13.50;56.67;98678.88;10416689;28;20049;-64
2024/03/02 20:46:07;;;;;;;7.55;6.85;;;;;;;13.47;56.71;98687.25;10426553;28;20084;-64
2024/03/02 20:51:08;;;;;;;9.40;7.53;;;;;;;13.41;56.82;98686.13;10427825;28;20053;-64
2024/03/02 20:56:10;;;;;;;8.05;7.22;;;;;;;13.30;56.82;98687.34;10430462;28;20059;-64
2024/03/02 21:01:12;;;;;;;10.38;8.63;;;;;;;13.35;57.03;98702.88;10434418;28;20147;-62
2024/03/02 21:06:13;;;;;;;8.32;7.43;;;;;;;13.32;57.23;98690.66;10431176;28;20048;-64
2024/03/02 21:11:18;;;;;;;11.48;8.27;;;;;;;13.24;57.76;98698.75;10430981;28;20049;-62
2024/03/02 21:16:20;;;;;;;9.65;7.72;;;;;;;13.12;57.88;98673.44;10413219;28;20083;-62
2024/03/02 21:21:21;;;;;;;8.50;7.20;;;;;;;13.22;58.09;98671.38;10416245;28;20048;-62
2024/03/02 21:26:25;;;;;;;9.25;8.35;;;;;;;13.12;58.12;98665.44;10407541;28;20669;-62
2024/03/02 21:31:26;;;;;;;10.73;8.30;;;;;;;13.02;58.45;98666.50;10431320;28;20051;-63
2024/03/02 21:36:27;;;;;;;9.50;8.10;;;;;;;12.98;58.91;98667.06;10411277;28;20059;-63
2024/03/02 21:41:29;;;;;;;9.88;8.65;;;;;;;12.97;58.77;98658.22;10430257;28;20076;-63
2024/03/02 21:46:31;;;;;;;10.45;9.18;;;;;;;12.94;58.97;98655.06;10425474;28;20463;-62
2024/03/02 21:51:32;;;;;;;10.98;9.88;;;;;;;12.90;59.01;98650.06;10429054;28;20501;-64
2024/03/02 21:56:34;;;;;;;11.35;10.13;;;;;;;12.81;59.12;98644.97;10435118;28;20102;-63
2024/03/02 22:01:35;;;;;;;10.15;9.15;;;;;;;12.76;59.54;98647.34;10433457;28;20480;-63
2024/03/02 22:06:38;;;;;;;12.73;10.68;;;;;;;12.73;59.48;98652.03;10438866;28;20048;-64
2024/03/02 22:11:39;;;;;;;11.98;9.48;;;;;;;12.68;59.72;98643.69;10406069;28;20595;-64
2024/03/02 22:16:42;;;;;;;10.50;9.20;;;;;;;12.60;60.30;98638.44;10425976;28;20681;-62
2024/03/02 22:21:44;;;;;;;12.02;9.80;;;;;;;12.54;60.78;98655.16;10433794;28;20057;-62
2024/03/02 22:26:45;;;;;;;10.13;8.43;;;;;;;12.38;61.08;98634.69;10436413;28;20146;-62
2024/03/02 22:31:47;;;;;;;10.23;8.93;;;;;;;12.42;61.22;98651.22;10431089;28;20264;-63
2024/03/02 22:36:49;;;;;;;10.88;8.50;;;;;;;12.41;61.48;98657.53;10438206;28;20060;-60
2024/03/02 22:41:51;;;;;;;12.90;8.57;;;;;;;12.38;61.42;98662.25;10408889;28;20139;-62
2024/03/02 22:46:54;;;;;;;11.38;9.43;;;;;;;12.37;61.23;98665.91;10418324;28;20139;-62
2024/03/02 22:51:56;;;;;;;12.15;9.65;;;;;;;12.33;61.64;98675.25;10418050;28;20085;-61
2024/03/02 22:56:58;;;;;;;11.50;10.30;;;;;;;12.29;61.88;98684.59;10431670;28;20048;-61
2024/03/02 23:02:00;;;;;;;12.77;10.13;;;;;;;12.24;62.08;98673.63;10392938;28;20055;-61
2024/03/02 23:07:03;;;;;;;10.75;9.65;;;;;;;12.20;62.09;98675.81;10382719;28;20044;-61
2024/03/02 23:12:04;;;;;;;10.70;9.60;;;;;;;12.11;62.55;98660.81;10424321;28;20698;-59
2024/03/02 23:17:06;;;;;;;12.45;10.15;;;;;;;12.12;62.80;98667.00;10409683;28;20183;-67
2024/03/02 23:22:08;;;;;;;11.38;9.13;;;;;;;12.08;63.06;98660.34;10380172;28;20048;-61
2024/03/02 23:27:09;;;;;;;11.95;10.07;;;;;;;12.08;63.22;98655.00;10411415;28;20069;-59